Pagrindinis puslapis
METAR-TAF:

METAR-TAF

Oro uostai :

Saint Thomas, Mergelių Salos

platuma: 18-20N, ilguma: 064-59W, Aukštis: 7 m

Dabartinis oras

Ataskaita buvo paskelbta 40 minutes, ne 01:53 UTC
Vėjas 4 kt iš Rytų/Šiaurės Rytų
Temperatūra 26°C
Drėgmė 79%
Slėgis 1016 hPa
Matomumas: 16.1 km
Su prošvaistėmis ne aukštis 5000 ft

METAR: TIST 290153Z 07004KT 10SM BKN050 26/22 A2999 RMK AO2 RAE0055 SLP155 P0000 T02560217

Laikas: 22:33 (02:33 UTC)

Prognozė

Ataskaita buvo paskelbta 2 valandos ir 54 minutes, ne 23:39 UTC
Prognozė galioja nuo 29 metu 00 UTC su 29 metu 24 UTC
Vėjas 3 kt iš Rytų/Šiaurės Rytų
Matomumas: 10 km
Mažai debesys ne aukštis 2500 ft
Išsisklaidę debesys ne aukštis 4000 ft
Su prošvaistėmis ne aukštis 5000 ft
Liūtis kaimynystėje
Nuo 29 metu 1400 UTC
Vėjas 9 kt iš Rytų
Matomumas: 10 km
Mažai debesys ne aukštis 2500 ft
Nuo 29 metu 2100 UTC
Vėjas 6 kt iš Rytų/Šiaurės Rytų
Matomumas: 10 km
Mažai debesys ne aukštis 2900 ft

TAF: TIST 282339Z 2900/2924 06003KT P6SM VCSH FEW025 SCT040 BKN050 FM291400 08009KT P6SM FEW025 FM292100 06006KT P6SM FEW029

Orai ataskaitas ir orų prognozės (METAR, TAF).

turimą stotys yra geltonos ir raudonos taškus žemėlapyje.

Perkelti pele per norėdami pamatyti stoties vardą.

Tada spustelėkite, norėdami matyti oro stebėjimo ir prognozės.

Norėdami pakeisti žemėlapį: spustelėkite ant žalios mygtukų su juodo kryžiaus žemyn,; žalią mygtuką su brūkšneliu, jei norite nutolinti; arba žalių rodyklių gretimoms žemėlapius.


METAR-TAF: